Ely, Nevada
Current Conditions -  °F | °C
As of 8:53 AM on Friday 19 Dec 2014 (Local Time) from KELY Reporting Station
Clear Clear  
Wind Chill: -8°   Ceiling: Unl
Heat Index: -3°   Visibility: 10mi
Dew Point: -6°   Wind: 7mph
Humidity: 81%   Direction: 130°SE
Pressure: 30.19"   Gusts: NA
Location:  39.25°N, 114.87°W
Report Text: KELY 191653Z AUTO 13006KT 10SM CLR M03/M06 A3019 RMK AO2 SLP253 T10331061
Loading
Personal Weather Stations






























Interactive Weather Map New forecast layout! Learn more

10-Day Weather Forecast

Advertisements
Track Severe Weather on mobile